Time;durP1;ratioP1;P1;durP2;ratioP2;P2;SDS_P1;SDS_P2;PMS_P1;PMS_P2;Temp;Humidity;BMP_temperature;BMP_pressure;BME280_temperature;BME280_humidity;BME280_pressure;Samples;Min_cycle;Max_cycle;Signal;HPM_P1;HPM_P2
2022/11/14 00:02:20;;;;;;;0.30;0.30;;;7.30;99.90;;;;;;5032240;28;20453;-73
2022/11/14 00:04:46;;;;;;;0.40;0.40;;;;;;;;;;5031156;28;20116;-73
2022/11/14 00:07:12;;;;;;;0.77;0.77;;;;;;;;;;5031677;28;20172;-74
2022/11/14 00:09:41;;;;;;;0.40;0.40;;;7.80;99.90;;;;;;5032395;28;20311;-73
2022/11/14 00:12:11;;;;;;;0.30;0.30;;;8.00;99.90;;;;;;5032179;28;20617;-74
2022/11/14 00:14:37;;;;;;;0.85;0.70;;;;;;;;;;5032616;28;20064;-73
2022/11/14 00:17:03;;;;;;;0.55;0.55;;;8.00;99.90;;;;;;5032112;28;20215;-73
2022/11/14 00:19:29;;;;;;;0.40;0.40;;;;;;;;;;5030991;28;20106;-72
2022/11/14 00:21:56;;;;;;;1.50;1.33;;;;;;;;;;5031712;28;20029;-72
2022/11/14 00:24:24;;;;;;;0.50;0.50;;;;;;;;;;5030569;28;20029;-73
2022/11/14 00:26:50;;;;;;;0.30;0.30;;;7.00;99.90;;;;;;5031981;28;20029;-73
2022/11/14 00:29:16;;;;;;;0.33;0.33;;;;;;;;;;5032309;28;20075;-72
2022/11/14 00:31:42;;;;;;;2.05;1.85;;;;;;;;;;5031677;28;20550;-73
2022/11/14 00:34:08;;;;;;;0.40;0.40;;;;;;;;;;5032070;28;20130;-73
2022/11/14 00:36:36;;;;;;;0.40;0.40;;;;;;;;;;5031734;28;20259;-73
2022/11/14 00:39:02;;;;;;;1.50;1.40;;;7.50;99.90;;;;;;5031267;28;20030;-72
2022/11/14 00:41:28;;;;;;;0.57;0.57;;;;;;;;;;5030385;28;20383;-73
2022/11/14 00:43:54;;;;;;;0.40;0.40;;;;;;;;;;5031948;28;20041;-73
2022/11/14 00:46:20;;;;;;;0.40;0.40;;;;;;;;;;5031508;28;20534;-73
2022/11/14 00:48:46;;;;;;;0.50;0.50;;;;;;;;;;5030115;28;20714;-72
2022/11/14 00:51:12;;;;;;;0.40;0.40;;;;;;;;;;5031619;28;20429;-71
2022/11/14 00:53:38;;;;;;;0.40;0.40;;;;;;;;;;5031197;28;20033;-73
2022/11/14 00:56:04;;;;;;;0.77;0.73;;;7.00;99.90;;;;;;5031426;28;20052;-73
2022/11/14 00:58:30;;;;;;;0.60;0.60;;;;;;;;;;5031279;28;20488;-73
2022/11/14 01:00:56;;;;;;;0.40;0.40;;;7.00;99.90;;;;;;5031193;28;20053;-73
2022/11/14 01:03:22;;;;;;;0.50;0.50;;;;;;;;;;5031107;28;20072;-73
2022/11/14 01:05:51;;;;;;;0.40;0.40;;;7.20;99.90;;;;;;5029576;28;20025;-73
2022/11/14 01:08:18;;;;;;;0.30;0.30;;;7.20;99.90;;;;;;5030483;28;20545;-73
2022/11/14 01:10:48;;;;;;;;;;;7.20;99.90;;;;;;5031436;28;20033;-73
2022/11/14 01:13:14;;;;;;;0.32;0.32;;;;;;;;;;5031099;28;19981;-74
2022/11/14 01:15:42;;;;;;;0.30;0.30;;;7.10;99.90;;;;;;5031087;28;20037;-73
2022/11/14 01:18:11;;;;;;;0.40;0.40;;;7.30;99.90;;;;;;5029140;28;20041;-72
2022/11/14 01:20:39;;;;;;;0.30;0.30;;;7.00;99.90;;;;;;5030985;28;20065;-74
2022/11/14 01:23:05;;;;;;;0.40;0.40;;;;;;;;;;5030731;28;20037;-73
2022/11/14 01:25:36;;;;;;;0.50;0.50;;;7.30;99.90;;;;;;5029594;28;20024;-74
2022/11/14 01:28:02;;;;;;;0.30;0.30;;;;;;;;;;5030593;28;20034;-73
2022/11/14 01:30:28;;;;;;;0.52;0.52;;;;;;;;;;5030787;28;20033;-73
2022/11/14 01:32:54;;;;;;;0.30;0.30;;;;;;;;;;5030508;28;20088;-72
2022/11/14 01:35:19;;;;;;;0.40;0.40;;;;;;;;;;5029067;28;20030;-73
2022/11/14 01:37:45;;;;;;;0.37;0.37;;;;;;;;;;5030144;28;20292;-73
2022/11/14 01:40:12;;;;;;;0.53;0.53;;;;;;;;;;5030540;28;20065;-72
2022/11/14 01:42:38;;;;;;;0.40;0.40;;;;;;;;;;5030646;28;20052;-73
2022/11/14 01:45:22;;;;;;;0.30;0.30;;;;;;;;;;5029232;28;20508;-74
2022/11/14 01:47:48;;;;;;;0.40;0.40;;;;;;;;;;5029166;28;20282;-72
2022/11/14 01:50:14;;;;;;;0.40;0.40;;;;;;;;;;5030747;28;20025;-73
2022/11/14 01:52:40;;;;;;;2.17;1.73;;;;;;;;;;5030599;28;20732;-73
2022/11/14 01:55:08;;;;;;;0.40;0.40;;;6.90;99.90;;;;;;5030467;28;20461;-73
2022/11/14 01:57:37;;;;;;;5.38;2.88;;;7.20;99.90;;;;;;5030415;28;20026;-74
2022/11/14 02:00:06;;;;;;;0.40;0.40;;;;;;;;;;5029171;28;20061;-73
2022/11/14 02:02:32;;;;;;;0.40;0.40;;;;;;;;;;5028663;28;20033;-73
2022/11/14 02:05:11;;;;;;;0.40;0.40;;;7.10;99.90;;;;;;5028953;28;20044;-74
2022/11/14 02:07:39;;;;;;;0.40;0.40;;;;;;;;;;5030111;28;20341;-73
2022/11/14 02:10:09;;;;;;;0.40;0.40;;;7.00;99.90;;;;;;5030181;28;20088;-72
2022/11/14 02:12:35;;;;;;;0.40;0.40;;;;;;;;;;5028910;28;20192;-72
2022/11/14 02:15:02;;;;;;;0.47;0.47;;;;;;;;;;5030590;28;20041;-73
2022/11/14 02:17:28;;;;;;;0.40;0.40;;;;;;;;;;5029895;28;20056;-72
2022/11/14 02:19:56;;;;;;;0.40;0.40;;;;;;;;;;5030359;28;20516;-73
2022/11/14 02:22:22;;;;;;;0.40;0.40;;;;;;;;;;5028686;28;20345;-73
2022/11/14 02:24:48;;;;;;;0.32;0.32;;;;;;;;;;5029731;28;20542;-73
2022/11/14 02:27:14;;;;;;;0.70;0.70;;;;;;;;;;5028792;28;20034;-74
2022/11/14 02:29:40;;;;;;;0.85;0.85;;;;;;;;;;5028846;28;20116;-73
2022/11/14 02:32:06;;;;;;;0.40;0.40;;;;;;;;;;5030136;28;20108;-73
2022/11/14 02:34:32;;;;;;;0.40;0.40;;;;;;;;;;5028646;28;20127;-72
2022/11/14 02:36:58;;;;;;;0.40;0.40;;;;;;;;;;5029578;28;20117;-73
2022/11/14 02:39:24;;;;;;;0.40;0.40;;;;;;;;;;5028805;28;20259;-73
2022/11/14 02:41:51;;;;;;;0.30;0.30;;;;;;;;;;5029897;28;20464;-73
2022/11/14 02:44:17;;;;;;;0.40;0.40;;;;;;;;;;5030097;28;20665;-73
2022/11/14 02:46:43;;;;;;;0.45;0.45;;;;;;;;;;5029904;28;20036;-74
2022/11/14 02:49:09;;;;;;;0.40;0.40;;;;;;;;;;5029265;28;20037;-73
2022/11/14 02:51:35;;;;;;;0.30;0.30;;;;;;;;;;5033490;28;20354;-73
2022/11/14 02:54:01;;;;;;;0.82;0.82;;;;;;;;;;5032577;28;20037;-73
2022/11/14 02:56:27;;;;;;;0.43;0.43;;;;;;;;;;5033531;28;20034;-73
2022/11/14 02:58:53;;;;;;;0.40;0.40;;;;;;;;;;5033764;28;20273;-72
2022/11/14 03:01:19;;;;;;;0.40;0.40;;;;;;;;;;5033388;28;20487;-73
2022/11/14 03:03:45;;;;;;;0.70;0.70;;;;;;;;;;5033486;28;20275;-73
2022/11/14 03:06:11;;;;;;;0.40;0.40;;;;;;;;;;5032072;28;20081;-72
2022/11/14 03:08:37;;;;;;;0.60;0.60;;;;;;;;;;5033588;28;20043;-73
2022/11/14 03:11:04;;;;;;;0.40;0.40;;;;;;;;;;5033105;28;20485;-72
2022/11/14 03:13:30;;;;;;;0.40;0.40;;;;;;;;;;5033677;28;20307;-72
2022/11/14 03:15:56;;;;;;;0.40;0.40;;;;;;;;;;5033386;28;20029;-73
2022/11/14 03:18:22;;;;;;;0.40;0.40;;;;;;;;;;5033041;28;20314;-73
2022/11/14 03:20:48;;;;;;;7.47;3.40;;;;;;;;;;5032018;28;20033;-73
2022/11/14 03:23:14;;;;;;;0.45;0.45;;;;;;;;;;5033427;28;20040;-73
2022/11/14 03:25:40;;;;;;;0.40;0.40;;;;;;;;;;5032619;28;20105;-73
2022/11/14 03:28:06;;;;;;;0.40;0.40;;;;;;;;;;5033069;28;20049;-73
2022/11/14 03:30:32;;;;;;;0.40;0.40;;;;;;;;;;5033205;28;20072;-74
2022/11/14 03:32:58;;;;;;;0.97;0.97;;;;;;;;;;5033408;28;20333;-73
2022/11/14 03:35:24;;;;;;;0.50;0.50;;;;;;;;;;5033147;28;20072;-74
2022/11/14 03:37:50;;;;;;;0.40;0.40;;;;;;;;;;5032981;28;20452;-72
2022/11/14 03:40:16;;;;;;;0.40;0.40;;;;;;;;;;5032598;28;20033;-73
2022/11/14 03:42:42;;;;;;;0.40;0.40;;;;;;;;;;5032886;28;20112;-73
2022/11/14 03:45:09;;;;;;;0.40;0.40;;;;;;;;;;5033391;28;20117;-74
2022/11/14 03:47:35;;;;;;;1.10;1.10;;;;;;;;;;5032816;28;20033;-72
2022/11/14 03:50:01;;;;;;;0.57;0.57;;;;;;;;;;5031217;28;20120;-73
2022/11/14 03:52:27;;;;;;;0.40;0.40;;;;;;;;;;5032806;28;20033;-73
2022/11/14 03:54:53;;;;;;;0.50;0.50;;;;;;;;;;5030754;28;20329;-73
2022/11/14 03:57:19;;;;;;;0.30;0.30;;;;;;;;;;5031108;28;20627;-73
2022/11/14 03:59:45;;;;;;;0.60;0.60;;;;;;;;;;5031179;28;20033;-73
2022/11/14 04:02:11;;;;;;;0.40;0.40;;;;;;;;;;5032568;28;20376;-72
2022/11/14 04:04:37;;;;;;;0.60;0.60;;;;;;;;;;5032514;28;20025;-73
2022/11/14 04:07:03;;;;;;;0.40;0.40;;;;;;;;;;5032247;28;20133;-73
2022/11/14 04:09:29;;;;;;;0.40;0.40;;;;;;;;;;5031257;28;20289;-73
2022/11/14 04:11:55;;;;;;;0.50;0.50;;;;;;;;;;5032128;28;20067;-72
2022/11/14 04:14:21;;;;;;;0.40;0.40;;;;;;;;;;5032735;28;20270;-73
2022/11/14 04:16:47;;;;;;;0.40;0.40;;;;;;;;;;5032346;28;20079;-73
2022/11/14 04:19:12;;;;;;;0.40;0.40;;;;;;;;;;5032245;28;20293;-73
2022/11/14 04:21:38;;;;;;;0.40;0.40;;;;;;;;;;5032399;28;20109;-74
2022/11/14 04:24:04;;;;;;;0.98;0.95;;;5.60;99.90;;;;;;5032310;28;20109;-73
2022/11/14 04:26:30;;;;;;;0.50;0.50;;;;;;;;;;5031801;28;20049;-73
2022/11/14 04:28:56;;;;;;;0.40;0.40;;;;;;;;;;5032219;28;20029;-73
2022/11/14 04:31:22;;;;;;;0.40;0.40;;;;;;;;;;5031855;28;20384;-73
2022/11/14 04:33:48;;;;;;;0.40;0.40;;;;;;;;;;5032186;28;20042;-72
2022/11/14 04:36:14;;;;;;;0.98;0.98;;;;;;;;;;5031594;28;20373;-74
2022/11/14 04:38:40;;;;;;;0.73;0.70;;;5.80;99.90;;;;;;5031867;28;20083;-72
2022/11/14 04:41:06;;;;;;;0.40;0.40;;;;;;;;;;5031308;28;20026;-73
2022/11/14 04:43:32;;;;;;;1.52;1.42;;;;;;;;;;5030333;28;20453;-73
2022/11/14 04:45:58;;;;;;;0.40;0.40;;;;;;;;;;5030352;28;20136;-72
2022/11/14 04:48:24;;;;;;;0.57;0.57;;;;;;;;;;5031572;28;20189;-73
2022/11/14 04:50:50;;;;;;;0.47;0.47;;;;;;;;;;5031523;28;20267;-72
2022/11/14 04:53:16;;;;;;;0.40;0.40;;;;;;;;;;5032128;28;20104;-72
2022/11/14 04:55:45;;;;;;;0.30;0.30;;;5.60;99.90;;;;;;5031608;28;20262;-74
2022/11/14 04:58:10;;;;;;;4.03;1.13;;;5.70;99.90;;;;;;5029640;28;20042;-74
2022/11/14 05:00:36;;;;;;;0.53;0.53;;;;;;;;;;5031677;28;20024;-73
2022/11/14 05:03:02;;;;;;;1.13;1.13;;;;;;;;;;5031546;28;20441;-73
2022/11/14 05:05:28;;;;;;;0.33;0.33;;;;;;;;;;5031442;28;20039;-72
2022/11/14 05:07:54;;;;;;;0.43;0.43;;;;;;;;;;5031409;28;20310;-72
2022/11/14 05:10:20;;;;;;;0.50;0.50;;;5.60;99.90;;;;;;5029929;28;20036;-72
2022/11/14 05:12:46;;;;;;;0.40;0.40;;;;;;;;;;5028796;28;20025;-72
2022/11/14 05:15:15;;;;;;;1.02;1.02;;;;;;;;;;5031051;28;20472;-73
2022/11/14 05:17:43;;;;;;;0.40;0.40;;;5.50;99.90;;;;;;5030981;28;20025;-73
2022/11/14 05:20:09;;;;;;;0.30;0.30;;;5.30;99.90;;;;;;5031240;28;20038;-73
2022/11/14 05:22:35;;;;;;;0.40;0.40;;;;;;;;;;5030675;28;20522;-73
2022/11/14 05:25:01;;;;;;;0.60;0.60;;;;;;;;;;5029652;28;20042;-73
2022/11/14 05:27:28;;;;;;;0.40;0.40;;;5.30;99.90;;;;;;5030249;28;20040;-73
2022/11/14 05:29:54;;;;;;;;;;;5.30;99.90;;;;;;5031545;28;20287;-73
2022/11/14 05:32:20;;;;;;;0.60;0.60;;;;;;;;;;5029428;28;19927;-73
2022/11/14 05:34:46;;;;;;;0.40;0.40;;;;;;;;;;5031007;28;20049;-74
2022/11/14 05:37:12;;;;;;;0.40;0.40;;;;;;;;;;5030743;28;20103;-73
2022/11/14 05:39:38;;;;;;;0.40;0.40;;;5.10;99.90;;;;;;5031165;28;20033;-72
2022/11/14 05:42:05;;;;;;;0.50;0.50;;;;;;;;;;5028856;28;20425;-73
2022/11/14 05:44:31;;;;;;;0.40;0.40;;;;;;;;;;5029691;28;20523;-73
2022/11/14 05:46:57;;;;;;;0.40;0.40;;;;;;;;;;5030504;28;20032;-73
2022/11/14 05:49:23;;;;;;;0.40;0.40;;;5.40;99.90;;;;;;5029495;28;20477;-75
2022/11/14 05:51:49;;;;;;;0.38;0.38;;;;;;;;;;5028963;28;20124;-73
2022/11/14 05:54:15;;;;;;;0.30;0.30;;;;;;;;;;5029268;28;20612;-73
2022/11/14 05:56:40;;;;;;;0.53;0.53;;;5.60;99.90;;;;;;5030468;28;20270;-74
2022/11/14 05:59:06;;;;;;;0.40;0.40;;;;;;;;;;5028688;28;20106;-72
2022/11/14 06:01:32;;;;;;;0.32;0.32;;;5.90;99.90;;;;;;5029118;28;20025;-73
2022/11/14 06:03:58;;;;;;;0.40;0.40;;;6.80;99.90;;;;;;5030454;28;20030;-72
2022/11/14 06:06:24;;;;;;;0.40;0.40;;;;;;;;;;5030004;28;20401;-72
2022/11/14 06:08:50;;;;;;;0.40;0.40;;;;;;;;;;5030404;28;20364;-73
2022/11/14 06:11:19;;;;;;;0.40;0.40;;;7.40;99.90;;;;;;5030346;28;20033;-73
2022/11/14 06:13:45;;;;;;;1.05;1.05;;;7.30;99.90;;;;;;5030088;28;20100;-74
2022/11/14 06:16:15;;;;;;;4.22;2.53;;;7.40;99.90;;;;;;5028980;28;20029;-74
2022/11/14 06:18:42;;;;;;;1.00;0.95;;;;;;;;;;5030393;28;20037;-75
2022/11/14 06:21:08;;;;;;;0.40;0.40;;;;;;;;;;5030175;28;20033;-72
2022/11/14 06:23:36;;;;;;;0.30;0.30;;;;;;;;;;5031918;28;20033;-73
2022/11/14 06:26:03;;;;;;;1.23;1.15;;;;;;;;;;5034294;28;20053;-73
2022/11/14 06:28:29;;;;;;;0.75;0.75;;;7.00;99.90;;;;;;5033676;28;20049;-73
2022/11/14 06:30:59;;;;;;;0.77;0.77;;;7.50;99.90;;;;;;5034238;28;20032;-74
2022/11/14 06:33:31;;;;;;;0.50;0.50;;;6.90;99.90;;;;;;5034106;28;20280;-73
2022/11/14 06:35:58;;;;;;;0.77;0.77;;;6.90;99.90;;;;;;5034174;28;20029;-73
2022/11/14 06:38:24;;;;;;;0.45;0.45;;;7.00;99.90;;;;;;5033642;28;20061;-74
2022/11/14 06:40:50;;;;;;;0.77;0.77;;;;;;;;;;5032467;28;20053;-73
2022/11/14 06:43:16;;;;;;;4.77;1.90;;;;;;;;;;5033656;28;20099;-72
2022/11/14 06:45:42;;;;;;;0.40;0.40;;;7.10;99.90;;;;;;5032626;28;20017;-73
2022/11/14 06:48:08;;;;;;;0.50;0.50;;;;;;;;;;5033937;28;20626;-74
2022/11/14 06:50:34;;;;;;;0.30;0.30;;;;;;;;;;5033905;28;20039;-72
2022/11/14 06:53:00;;;;;;;0.40;0.40;;;;;;;;;;5033744;28;20029;-73
2022/11/14 06:55:26;;;;;;;0.80;0.80;;;;;;;;;;5033308;28;20267;-75
2022/11/14 06:57:53;;;;;;;1.52;1.42;;;;;;;;;;5033057;28;20076;-74
2022/11/14 07:00:19;;;;;;;0.40;0.40;;;;;;;;;;5033396;28;20113;-72
2022/11/14 07:02:46;;;;;;;1.35;1.00;;;;;;;;;;5032032;28;20017;-73
2022/11/14 07:05:11;;;;;;;1.90;1.77;;;;;;;;;;5033427;28;20030;-73
2022/11/14 07:07:37;;;;;;;1.57;1.47;;;10.30;99.90;;;;;;5033034;28;20053;-72
2022/11/14 07:10:03;;;;;;;0.40;0.40;;;;;;;;;;5034137;28;20132;-72
2022/11/14 07:12:31;;;;;;;1.50;1.40;;;;;;;;;;5033168;28;20034;-73
2022/11/14 07:14:57;;;;;;;1.30;1.20;;;;;;;;;;5033281;28;20724;-72
2022/11/14 07:17:23;;;;;;;1.73;1.63;;;;;;;;;;5031847;28;20041;-73
2022/11/14 07:19:49;;;;;;;1.63;1.37;;;;;;;;;;5033647;28;20274;-73
2022/11/14 07:22:15;;;;;;;1.88;1.10;;;9.80;99.90;;;;;;5033148;28;20460;-73
2022/11/14 07:24:41;;;;;;;1.70;1.60;;;;;;;;;;5033041;28;20029;-74
2022/11/14 07:27:09;;;;;;;0.63;0.63;;;;;;;;;;5033287;28;20108;-74
2022/11/14 07:29:36;;;;;;;1.05;1.05;;;;;;;;;;5033177;28;20348;-73
2022/11/14 07:32:01;;;;;;;1.40;1.33;;;9.40;99.90;;;;;;5032922;28;20049;-74
2022/11/14 07:34:27;;;;;;;0.60;0.60;;;9.40;99.90;;;;;;5032939;28;20066;-74
2022/11/14 07:36:53;;;;;;;1.47;1.37;;;;;;;;;;5032229;28;20025;-73
2022/11/14 07:39:20;;;;;;;0.93;0.93;;;;;;;;;;5032548;28;20037;-74
2022/11/14 07:41:46;;;;;;;1.08;1.05;;;;;;;;;;5032686;28;20040;-73
2022/11/14 07:44:12;;;;;;;0.80;0.80;;;;;;;;;;5032423;28;20040;-74
2022/11/14 07:46:38;;;;;;;0.40;0.40;;;;;;;;;;5032774;28;20606;-72
2022/11/14 07:49:03;;;;;;;0.40;0.40;;;9.30;99.90;;;;;;5033016;28;20037;-74
2022/11/14 07:51:29;;;;;;;0.77;0.77;;;;;;;;;;5032782;28;20495;-74
2022/11/14 07:53:55;;;;;;;0.40;0.40;;;;;;;;;;5031917;28;20535;-71
2022/11/14 07:56:21;;;;;;;0.40;0.40;;;;;;;;;;5032580;28;20416;-68
2022/11/14 07:58:47;;;;;;;0.60;0.60;;;;;;;;;;5030593;28;20290;-69
2022/11/14 08:01:13;;;;;;;0.50;0.50;;;8.90;99.90;;;;;;5032352;28;20033;-71
2022/11/14 08:03:39;;;;;;;0.30;0.30;;;;;;;;;;5032538;28;20068;-73
2022/11/14 08:06:07;;;;;;;0.40;0.40;;;;;;;;;;5029489;28;20107;-73
2022/11/14 08:08:33;;;;;;;0.30;0.30;;;;;;;;;;5032175;28;20046;-73
2022/11/14 08:11:00;;;;;;;0.55;0.55;;;;;;;;;;5030462;28;20037;-73
2022/11/14 08:13:26;;;;;;;0.32;0.32;;;;;;;;;;5031104;28;20087;-73
2022/11/14 08:15:53;;;;;;;0.40;0.40;;;;;;;;;;5030357;28;20068;-73
2022/11/14 08:18:19;;;;;;;0.40;0.40;;;;;;;;;;5030936;28;20095;-74
2022/11/14 08:20:45;;;;;;;0.40;0.40;;;;;;;;;;5031903;28;20354;-74
2022/11/14 08:23:11;;;;;;;0.40;0.40;;;;;;;;;;5032028;28;20025;-74
2022/11/14 08:25:37;;;;;;;0.85;0.77;;;;;;;;;;5030453;28;20094;-74
2022/11/14 08:28:03;;;;;;;0.40;0.40;;;;;;;;;;5036223;28;20116;-69
2022/11/14 08:30:30;;;;;;;0.40;0.40;;;;;;;;;;5034885;28;20368;-69
2022/11/14 08:32:55;;;;;;;0.45;0.45;;;;;;;;;;5046105;28;20028;-68
2022/11/14 08:35:22;;;;;;;0.30;0.30;;;;;;;;;;5046168;28;20104;-69
2022/11/14 08:37:48;;;;;;;0.40;0.40;;;;;;;;;;5046066;28;20297;-69
2022/11/14 08:40:14;;;;;;;0.75;0.75;;;;;;;;;;5032553;28;20136;-69
2022/11/14 08:42:40;;;;;;;0.45;0.45;;;;;;;;;;5045574;28;20506;-69
2022/11/14 08:45:06;;;;;;;0.30;0.30;;;;;;;;;;5038408;28;20037;-68
2022/11/14 08:47:32;;;;;;;0.40;0.40;;;;;;;;;;5037865;28;20029;-67
2022/11/14 08:49:58;;;;;;;0.70;0.70;;;;;;;;;;5037414;28;20032;-69
2022/11/14 08:52:24;;;;;;;0.40;0.40;;;;;;;;;;5031572;28;20064;-68
2022/11/14 08:54:50;;;;;;;0.40;0.40;;;;;;;;;;5047466;28;20128;-69
2022/11/14 08:57:16;;;;;;;0.60;0.60;;;;;;;;;;5044704;28;20029;-70
2022/11/14 08:59:42;;;;;;;0.40;0.40;;;;;;;;;;5030928;28;20439;-70
2022/11/14 09:02:15;;;;;;;0.60;0.60;;;10.00;99.90;;;;;;5023321;28;20358;-68
2022/11/14 09:04:41;;;;;;;0.40;0.40;;;;;;;;;;5038456;28;20589;-67
2022/11/14 09:07:07;;;;;;;1.65;0.98;;;;;;;;;;5046126;28;20106;-67
2022/11/14 09:09:33;;;;;;;0.40;0.40;;;;;;;;;;5035031;28;20041;-68
2022/11/14 09:11:59;;;;;;;0.30;0.30;;;;;;;;;;5032030;28;20021;-67
2022/11/14 09:14:25;;;;;;;0.40;0.40;;;;;;;;;;5042821;28;20037;-70
2022/11/14 09:16:51;;;;;;;0.50;0.50;;;;;;;;;;5038177;28;20163;-67
2022/11/14 09:19:17;;;;;;;0.37;0.37;;;;;;;;;;5032022;28;20518;-69
2022/11/14 09:21:43;;;;;;;0.37;0.37;;;;;;;;;;5029721;28;20105;-67
2022/11/14 09:24:09;;;;;;;0.40;0.40;;;;;;;;;;5045258;28;20033;-67
2022/11/14 09:26:35;;;;;;;0.43;0.43;;;;;;;;;;5033408;28;20404;-66
2022/11/14 09:29:01;;;;;;;0.30;0.30;;;;;;;;;;5033129;28;20029;-67
2022/11/14 09:31:28;;;;;;;0.40;0.40;;;;;;;;;;5033518;28;20503;-66
2022/11/14 09:33:54;;;;;;;0.82;0.82;;;;;;;;;;5035968;28;20282;-66
2022/11/14 09:36:20;;;;;;;1.48;1.38;;;;;;;;;;5040428;28;20067;-67
2022/11/14 09:38:46;;;;;;;0.43;0.43;;;;;;;;;;5037834;28;20068;-67
2022/11/14 09:41:15;;;;;;;0.40;0.40;;;;;;;;;;5052397;28;20029;-67
2022/11/14 09:43:56;;;;;;;0.88;0.88;;;11.00;99.90;;;;;;5044037;28;20067;-63
2022/11/14 09:46:39;;;;;;;0.40;0.40;;;;;;;;;;5032936;28;20048;-67
2022/11/14 09:49:14;;;;;;;0.65;0.65;;;;;;;;;;5031252;28;20033;-68
2022/11/14 09:51:49;;;;;;;2.72;1.42;;;11.60;99.90;;;;;;5031446;28;20029;-67
2022/11/14 09:54:26;;;;;;;0.60;0.60;;;;;;;;;;5036327;28;20037;-67
2022/11/14 09:56:52;;;;;;;0.50;0.50;;;;;;;;;;5030425;28;20163;-69
2022/11/14 09:59:18;;;;;;;0.40;0.40;;;;;;;;;;5031771;28;20037;-68
2022/11/14 10:02:01;;;;;;;3.80;2.20;;;11.70;99.90;;;;;;5031323;28;20503;-67
2022/11/14 10:04:56;;;;;;;0.40;0.40;;;11.50;99.90;;;;;;5030838;28;20765;-69
2022/11/14 10:07:51;;;;;;;0.80;0.80;;;;;;;;;;5020868;28;20064;-68
2022/11/14 10:10:24;;;;;;;0.30;0.30;;;;;;;;;;5031200;28;20106;-66
2022/11/14 10:13:09;;;;;;;0.30;0.30;;;;;;;;;;5029892;28;20034;-70
2022/11/14 10:15:55;;;;;;;0.65;0.65;;;11.20;99.90;;;;;;5028624;28;20132;-66
2022/11/14 10:18:46;;;;;;;0.40;0.40;;;;;;;;;;5024824;28;20124;-69
2022/11/14 10:21:30;;;;;;;0.30;0.30;;;;;;;;;;5027354;28;20049;-67
2022/11/14 10:24:24;;;;;;;2.10;1.95;;;11.70;99.90;;;;;;5028811;28;20080;-67
2022/11/14 10:27:17;;;;;;;0.38;0.38;;;;;;;;;;5027089;28;20065;-68
2022/11/14 10:30:18;;;;;;;0.50;0.50;;;;;;;;;;5034693;28;20113;-67
2022/11/14 10:32:51;;;;;;;0.55;0.55;;;;;;;;;;5028276;28;20024;-70
2022/11/14 10:35:18;;;;;;;0.30;0.30;;;;;;;;;;5042100;28;20087;-69
2022/11/14 10:38:03;;;;;;;0.30;0.30;;;;;;;;;;5039597;28;20021;-69
2022/11/14 10:40:40;;;;;;;0.43;0.43;;;;;;;;;;5033583;28;20426;-65
2022/11/14 10:43:14;;;;;;;0.30;0.30;;;;;;;;;;5029414;28;20083;-65
2022/11/14 10:45:42;;;;;;;0.30;0.30;;;;;;;;;;5036413;28;20476;-65
2022/11/14 10:48:25;;;;;;;0.30;0.30;;;;;;;;;;5029258;28;20120;-65
2022/11/14 10:50:54;;;;;;;0.30;0.30;;;;;;;;;;5029056;28;20461;-66
2022/11/14 10:53:41;;;;;;;0.30;0.30;;;;;;;;;;5038913;28;20167;-65
2022/11/14 10:56:13;;;;;;;0.40;0.40;;;11.90;99.90;;;;;;5029583;28;20124;-66
2022/11/14 10:58:39;;;;;;;0.40;0.40;;;;;;;;;;5030361;28;20034;-65
2022/11/14 11:01:24;;;;;;;1.55;1.25;;;;;;;;;;5031084;28;20036;-64
2022/11/14 11:03:50;;;;;;;0.30;0.30;;;;;;;;;;5027137;28;20040;-66
2022/11/14 11:06:26;;;;;;;0.37;0.37;;;;;;;;;;5026176;28;20038;-64
2022/11/14 11:11:41;;;;;;;0.82;0.82;;;;;;;;;;5035037;28;20102;-65
2022/11/14 11:14:25;;;;;;;0.30;0.30;;;;;;;;;;5037843;28;20033;-65
2022/11/14 11:17:07;;;;;;;1.05;1.05;;;;;;;;;;5025645;28;20036;-66
2022/11/14 11:19:33;;;;;;;0.38;0.38;;;;;;;;;;5035315;28;20025;-67
2022/11/14 11:21:59;;;;;;;0.30;0.30;;;;;;;;;;5034866;28;20128;-65
2022/11/14 11:24:36;;;;;;;0.40;0.40;;;;;;;;;;5032874;28;20163;-66
2022/11/14 11:27:21;;;;;;;0.63;0.63;;;;;;;;;;5032862;28;20033;-66
2022/11/14 11:30:00;;;;;;;0.82;0.82;;;12.60;99.90;;;;;;5029291;28;20108;-66
2022/11/14 11:32:26;;;;;;;0.30;0.30;;;;;;;;;;5037653;28;20477;-65
2022/11/14 11:34:52;;;;;;;0.50;0.50;;;;;;;;;;5034335;28;20033;-65
2022/11/14 11:37:30;;;;;;;0.47;0.47;;;;;;;;;;5033390;28;20735;-66
2022/11/14 11:39:59;;;;;;;0.40;0.40;;;;;;;;;;5032155;28;20022;-67
2022/11/14 11:42:41;;;;;;;0.40;0.40;;;13.70;99.90;;;;;;5031195;28;20033;-68
2022/11/14 11:45:16;;;;;;;0.30;0.30;;;13.90;99.90;;;;;;5034839;28;20044;-66
2022/11/14 11:47:46;;;;;;;0.68;0.68;;;;;;;;;;5036894;28;20121;-66
2022/11/14 11:50:21;;;;;;;0.30;0.30;;;13.20;99.90;;;;;;5035226;28;20048;-66
2022/11/14 11:53:11;;;;;;;0.30;0.30;;;12.50;99.90;;;;;;5038382;28;20426;-66
2022/11/14 11:55:41;;;;;;;0.32;0.32;;;;;;;;;;5032229;28;20077;-64
2022/11/14 11:58:29;;;;;;;0.40;0.40;;;;;;;;;;5040212;28;20804;-66
2022/11/14 12:00:55;;;;;;;0.40;0.40;;;;;;;;;;5052144;28;20539;-65
2022/11/14 12:03:22;;;;;;;0.60;0.60;;;10.10;99.90;;;;;;5044606;28;20075;-64
2022/11/14 12:06:27;;;;;;;0.30;0.30;;;;;;;;;;5033443;28;20075;-65
2022/11/14 12:09:16;;;;;;;0.30;0.30;;;;;;;;;;5031825;28;20041;-66
2022/11/14 12:11:47;;;;;;;0.40;0.40;;;9.70;99.90;;;;;;5022794;28;20512;-65
2022/11/14 12:14:25;;;;;;;0.40;0.40;;;9.70;99.90;;;;;;5033090;28;20129;-65
2022/11/14 12:17:00;;;;;;;0.40;0.40;;;;;;;;;;5021015;28;20045;-66
2022/11/14 12:19:38;;;;;;;0.40;0.40;;;;;;;;;;5036235;28;20033;-65
2022/11/14 12:22:27;;;;;;;0.52;0.52;;;9.40;99.90;;;;;;5032175;28;20056;-64
2022/11/14 12:24:58;;;;;;;0.40;0.40;;;;;;;;;;5014345;28;20037;-68
2022/11/14 12:27:53;;;;;;;0.40;0.40;;;9.40;99.90;;;;;;5016420;28;20033;-65
2022/11/14 12:30:23;;;;;;;0.35;0.35;;;9.30;99.90;;;;;;5029360;28;20037;-65
2022/11/14 12:32:49;;;;;;;0.40;0.40;;;;;;;;;;5037394;28;20048;-68
2022/11/14 12:35:25;;;;;;;0.50;0.50;;;9.10;99.90;;;;;;5049039;28;20036;-66
2022/11/14 12:37:53;;;;;;;0.30;0.30;;;9.00;99.90;;;;;;5028756;28;20091;-65
2022/11/14 12:40:33;;;;;;;1.00;0.95;;;9.00;99.90;;;;;;5026441;28;20053;-65
2022/11/14 12:43:00;;;;;;;0.40;0.40;;;;;;;;;;5048608;28;20128;-65
2022/11/14 12:45:25;;;;;;;;;;;;;;;;;;5053351;28;20445;-65
2022/11/14 12:48:10;;;;;;;0.63;0.63;;;;;;;;;;5047148;28;19912;-64
2022/11/14 12:50:41;;;;;;;0.45;0.45;;;8.70;99.90;;;;;;5012947;28;20034;-65
2022/11/14 12:53:34;;;;;;;1.05;1.05;;;8.60;99.90;;;;;;5012842;28;20038;-64
2022/11/14 12:56:30;;;;;;;0.57;0.57;;;8.70;99.90;;;;;;5013563;28;20038;-65
2022/11/14 12:59:08;;;;;;;0.40;0.40;;;;;;;;;;5029172;28;20030;-66
2022/11/14 13:02:06;;;;;;;0.30;0.30;;;;;;;;;;5032737;28;20025;-65
2022/11/14 13:04:43;;;;;;;0.60;0.60;;;;;;;;;;5020708;28;20037;-64
2022/11/14 13:07:27;;;;;;;0.50;0.50;;;8.60;99.90;;;;;;5018877;28;20056;-63
2022/11/14 13:10:08;;;;;;;0.30;0.30;;;8.30;99.90;;;;;;5029392;28;20063;-64
2022/11/14 13:21:47;;;;;;;0.40;0.40;;;9.40;99.90;;;;;;5034543;28;20063;-63
2022/11/14 13:24:15;;;;;;;0.30;0.30;;;8.00;99.90;;;;;;5029514;28;20129;-63
2022/11/14 13:26:49;;;;;;;0.40;0.40;;;8.00;99.90;;;;;;5027534;28;20037;-64
2022/11/14 13:29:39;;;;;;;0.40;0.40;;;8.70;99.90;;;;;;5026475;28;20333;-63
2022/11/14 13:32:10;;;;;;;0.65;0.65;;;7.80;99.90;;;;;;5028503;28;20029;-63
2022/11/14 13:34:52;;;;;;;0.30;0.30;;;7.70;99.90;;;;;;5030079;28;20029;-65
2022/11/14 13:37:18;;;;;;;0.73;0.73;;;;;;;;;;5025231;28;20050;-63
2022/11/14 13:39:46;;;;;;;0.30;0.30;;;7.90;99.90;;;;;;5032032;28;20334;-65
2022/11/14 13:42:18;;;;;;;0.35;0.35;;;8.40;99.90;;;;;;5031053;28;20034;-62
2022/11/14 13:45:13;;;;;;;0.30;0.30;;;7.80;99.90;;;;;;5032145;28;20022;-63
2022/11/14 13:47:57;;;;;;;0.40;0.40;;;7.50;99.90;;;;;;5030757;28;20345;-62
2022/11/14 13:50:33;;;;;;;0.30;0.30;;;7.70;99.90;;;;;;5032112;28;20037;-63
2022/11/14 13:52:59;;;;;;;0.30;0.30;;;8.10;99.90;;;;;;5020697;28;20025;-62
2022/11/14 13:55:25;;;;;;;0.40;0.40;;;;;;;;;;5030108;28;20404;-62
2022/11/14 13:58:28;;;;;;;0.50;0.50;;;6.90;99.90;;;;;;5031597;28;20073;-64
2022/11/14 14:01:24;;;;;;;0.60;0.60;;;7.60;99.90;;;;;;5030307;28;20040;-62
2022/11/14 14:04:27;;;;;;;0.32;0.32;;;7.60;99.90;;;;;;5035948;28;20037;-64
2022/11/14 14:07:25;;;;;;;0.30;0.30;;;7.20;99.90;;;;;;5036908;28;20076;-63
2022/11/14 14:10:14;;;;;;;0.40;0.40;;;6.60;99.90;;;;;;5040338;28;20028;-64
2022/11/14 14:12:55;;;;;;;0.30;0.30;;;7.30;99.90;;;;;;5032639;28;20301;-63
2022/11/14 14:16:17;;;;;;;0.80;0.80;;;6.90;99.90;;;;;;5031338;28;20459;-63
2022/11/14 14:19:24;;;;;;;0.40;0.40;;;7.20;99.90;;;;;;5009268;28;20044;-63
2022/11/14 14:22:14;;;;;;;1.05;1.02;;;7.50;99.90;;;;;;5009249;28;20482;-62
2022/11/14 14:25:10;;;;;;;0.40;0.40;;;7.40;99.90;;;;;;5012094;28;20030;-63
2022/11/14 14:27:58;;;;;;;0.50;0.50;;;7.00;99.90;;;;;;5018567;28;20033;-63
2022/11/14 14:30:24;;;;;;;;;;;7.00;99.90;;;;;;5032027;28;20073;-63
2022/11/14 14:33:12;;;;;;;0.30;0.30;;;7.20;99.90;;;;;;5031088;28;19994;-64
2022/11/14 14:35:38;;;;;;;0.40;0.40;;;;;;;;;;5031017;28;20108;-64
2022/11/14 14:38:20;;;;;;;0.75;0.75;;;6.70;99.90;;;;;;5030662;28;20095;-63
2022/11/14 14:40:46;;;;;;;0.30;0.30;;;6.30;99.90;;;;;;5010316;28;20497;-62